Terminal Aerodrome Forecast
Issued by NWS Greer, SC

Home | Current Version | Previous Version | Text Only | Print | Product List | Glossary On
Versions: 1 2 3 4 5 6 7 8 9 10 11 12 13 14 15 16 17 18 19 20 21 22 23 24 25 26 27 28 29 30 31 32 33 34
843
FTUS42 KGSP 211724
TAFAVL
TAF
KAVL 211724Z 2118/2218 18007KT P6SM BKN035
     FM220400 00000KT 5SM BR BKN035
     FM220600 00000KT 3SM BR SCT015 BKN035
     FM221100 34008KT 5SM BR SCT130
     FM221400 33008KT P6SM FEW250=

USA.gov is the U.S. government's official web portal to all federal, state and local government web resources and services.